createdAt,value
2018-06-01T00:01:06.756Z,3.07
2018-06-01T00:03:35.015Z,3.10
2018-06-01T00:06:04.040Z,2.80
2018-06-01T00:08:32.294Z,2.60
2018-06-01T00:11:00.560Z,3.13
2018-06-01T00:13:29.567Z,2.83
2018-06-01T00:15:57.838Z,3.37
2018-06-01T00:18:26.090Z,3.20
2018-06-01T00:20:55.120Z,3.10
2018-06-01T00:23:23.365Z,2.93
2018-06-01T00:25:52.387Z,3.27
2018-06-01T00:28:20.708Z,2.77
2018-06-01T00:30:48.951Z,2.83
2018-06-01T00:33:17.204Z,3.40
2018-06-01T00:35:45.466Z,3.10
2018-06-01T00:38:13.715Z,3.03
2018-06-01T00:40:41.962Z,3.70
2018-06-01T00:43:10.230Z,2.73
2018-06-01T00:45:38.481Z,3.20
2018-06-01T00:48:06.734Z,3.20
2018-06-01T00:50:35.763Z,3.37
2018-06-01T00:53:04.014Z,3.13
2018-06-01T00:55:32.282Z,3.23
2018-06-01T00:58:00.528Z,3.10
2018-06-01T01:00:28.767Z,3.33
2018-06-01T01:02:57.039Z,3.60
2018-06-01T01:05:26.055Z,3.33
2018-06-01T01:07:54.310Z,3.50
2018-06-01T01:10:22.574Z,3.70
2018-06-01T01:12:50.827Z,3.43
2018-06-01T01:15:19.077Z,3.57
2018-06-01T01:17:48.095Z,3.70
2018-06-01T01:20:16.382Z,3.70
2018-06-01T01:22:45.469Z,4.07
2018-06-01T01:25:13.719Z,3.80
2018-06-01T01:27:42.752Z,3.80
2018-06-01T01:30:11.004Z,3.90
2018-06-01T01:32:40.011Z,3.87
2018-06-01T01:35:08.519Z,4.30
2018-06-01T01:37:36.790Z,4.20
2018-06-01T01:40:05.026Z,4.37
2018-06-01T01:42:33.288Z,3.87
2018-06-01T01:45:02.304Z,4.23
2018-06-01T01:47:30.569Z,3.93
2018-06-01T01:49:59.577Z,4.43
2018-06-01T01:52:27.832Z,4.30
2018-06-01T01:54:56.093Z,4.00
2018-06-01T01:57:25.123Z,4.00
2018-06-01T01:59:55.163Z,3.90
2018-06-01T02:02:23.920Z,3.60
2018-06-01T02:04:52.283Z,4.10
2018-06-01T02:07:21.336Z,3.87
2018-06-01T02:09:49.606Z,3.47
2018-06-01T02:12:17.861Z,3.77
2018-06-01T02:14:46.104Z,3.67
2018-06-01T02:17:14.380Z,3.80
2018-06-01T02:19:42.683Z,3.63
2018-06-01T02:22:10.943Z,3.40
2018-06-01T02:24:39.187Z,4.07
2018-06-01T02:27:08.220Z,3.87
2018-06-01T02:29:36.500Z,3.33
2018-06-01T02:32:04.861Z,3.30
2018-06-01T02:34:33.144Z,3.60
2018-06-01T02:37:01.417Z,3.47
2018-06-01T02:39:29.684Z,3.37
2018-06-01T02:41:57.949Z,3.07
2018-06-01T02:44:26.207Z,3.73
2018-06-01T02:46:55.247Z,3.70
2018-06-01T02:49:23.485Z,3.50
2018-06-01T02:51:52.508Z,3.63
2018-06-01T02:54:20.778Z,3.57
2018-06-01T02:56:49.021Z,3.60
2018-06-01T02:59:18.047Z,4.00
2018-06-01T03:01:46.323Z,4.13
2018-06-01T03:04:14.608Z,3.80
2018-06-01T03:06:54.812Z,3.93
2018-06-01T03:09:23.827Z,4.20
2018-06-01T03:11:52.103Z,3.90
2018-06-01T03:14:21.110Z,3.90
2018-06-01T03:16:49.368Z,4.23
2018-06-01T03:19:18.363Z,3.90
2018-06-01T03:21:46.623Z,4.67
2018-06-01T03:24:15.656Z,4.37
2018-06-01T03:26:43.889Z,4.37
2018-06-01T03:29:12.943Z,3.97
2018-06-01T03:31:41.227Z,4.27
2018-06-01T03:34:09.475Z,4.90
2018-06-01T03:36:37.752Z,4.23
2018-06-01T03:39:06.312Z,4.07
2018-06-01T03:41:34.557Z,3.93
2018-06-01T03:44:03.566Z,4.47
2018-06-01T03:46:31.840Z,4.33
2018-06-01T03:49:00.202Z,3.97
2018-06-01T03:51:28.452Z,5.13
2018-06-01T03:53:56.709Z,4.23
2018-06-01T03:56:24.963Z,4.13
2018-06-01T03:58:53.352Z,4.70
2018-06-01T04:01:21.690Z,4.20
2018-06-01T04:03:50.699Z,5.17
2018-06-01T04:06:18.986Z,4.80
2018-06-01T04:08:47.249Z,4.47
2018-06-01T04:11:15.478Z,4.67
2018-06-01T04:13:43.761Z,5.00
2018-06-01T04:16:12.316Z,5.33
2018-06-01T04:18:40.587Z,5.27
2018-06-01T04:21:08.815Z,5.13
2018-06-01T04:23:37.140Z,5.00
2018-06-01T04:26:05.396Z,4.77
2018-06-01T04:28:33.662Z,5.87
2018-06-01T04:31:01.923Z,5.77
2018-06-01T04:33:30.185Z,5.00
2018-06-01T04:35:59.234Z,5.17
2018-06-01T04:38:27.479Z,5.37
2018-06-01T04:40:55.744Z,5.13
2018-06-01T04:43:23.988Z,5.27
2018-06-01T04:45:52.349Z,5.20
2018-06-01T04:48:20.636Z,5.30
2018-06-01T04:50:48.890Z,5.23
2018-06-01T04:53:17.333Z,4.90
2018-06-01T04:55:45.615Z,4.53
2018-06-01T04:58:13.863Z,5.00
2018-06-01T05:00:42.903Z,4.70
2018-06-01T05:03:11.135Z,4.97
2018-06-01T05:05:39.621Z,4.87
2018-06-01T05:08:08.628Z,4.57
2018-06-01T05:10:36.906Z,4.70
2018-06-01T05:13:05.176Z,4.30
2018-06-01T05:15:33.433Z,4.37
2018-06-01T05:18:01.687Z,4.47
2018-06-01T05:20:29.960Z,4.43
2018-06-01T05:22:58.287Z,4.37
2018-06-01T05:25:26.756Z,4.73
2018-06-01T05:27:55.032Z,4.50
2018-06-01T05:30:23.283Z,4.30
2018-06-01T05:32:52.304Z,4.20
2018-06-01T05:35:20.546Z,4.20
2018-06-01T05:37:49.584Z,4.47
2018-06-01T05:40:18.268Z,4.23
2018-06-01T05:42:46.797Z,4.50
2018-06-01T05:45:15.009Z,4.33
2018-06-01T05:47:43.275Z,4.00
2018-06-01T05:50:11.858Z,4.07
2018-06-01T05:52:40.100Z,4.57
2018-06-01T05:55:09.134Z,4.13
2018-06-01T05:57:37.425Z,4.30
2018-06-01T06:00:05.672Z,4.73
2018-06-01T06:02:33.935Z,4.30
2018-06-01T06:05:02.969Z,4.20
2018-06-01T06:07:31.213Z,4.43
2018-06-01T06:09:59.639Z,4.57
2018-06-01T06:12:27.871Z,4.00
2018-06-01T06:14:56.136Z,4.13
2018-06-01T06:17:25.632Z,4.17
2018-06-01T06:19:54.652Z,4.30
2018-06-01T06:22:22.892Z,4.27
2018-06-01T06:24:51.972Z,4.20
2018-06-01T06:27:20.299Z,4.53
2018-06-01T06:29:48.547Z,3.87
2018-06-01T06:32:17.743Z,4.67
2018-06-01T06:34:46.739Z,4.23
2018-06-01T06:37:15.007Z,4.50
2018-06-01T06:39:44.039Z,3.83
2018-06-01T06:42:12.288Z,4.13
2018-06-01T06:44:40.594Z,4.00
2018-06-01T06:47:08.864Z,4.10
2018-06-01T06:49:37.126Z,4.23
2018-06-01T06:52:05.389Z,3.87
2018-06-01T06:54:33.636Z,3.80
2018-06-01T06:57:01.875Z,4.10
2018-06-01T06:59:30.161Z,3.87
2018-06-01T07:01:58.395Z,4.30
2018-06-01T07:04:26.651Z,4.40
2018-06-01T07:06:55.686Z,4.07
2018-06-01T07:09:23.940Z,3.90
2018-06-01T07:11:52.183Z,3.53
2018-06-01T07:14:21.196Z,3.80
2018-06-01T07:16:49.483Z,3.53
2018-06-01T07:19:17.723Z,3.77
2018-06-01T07:21:46.759Z,3.63
2018-06-01T07:24:14.992Z,3.70
2018-06-01T07:26:44.035Z,3.87
2018-06-01T07:29:12.292Z,3.60
2018-06-01T07:31:40.539Z,4.17
2018-06-01T07:34:09.570Z,4.10
2018-06-01T07:36:37.830Z,3.80
2018-06-01T07:39:07.038Z,3.90
2018-06-01T07:41:36.039Z,3.80
2018-06-01T07:44:04.287Z,4.33
2018-06-01T07:46:32.539Z,3.97
2018-06-01T07:49:00.937Z,4.00
2018-06-01T07:51:29.219Z,4.50
2018-06-01T07:53:58.304Z,4.00
2018-06-01T07:56:26.562Z,3.60
2018-06-01T07:58:55.588Z,3.80
2018-06-01T08:01:23.949Z,4.80
2018-06-01T08:03:52.948Z,4.27
2018-06-01T08:06:21.489Z,4.00
2018-06-01T08:08:49.739Z,4.27
2018-06-01T08:11:17.997Z,4.27
2018-06-01T08:13:46.259Z,3.87
2018-06-01T08:16:14.536Z,3.80
2018-06-01T08:18:42.793Z,4.50
2018-06-01T08:21:11.834Z,4.30
2018-06-01T08:23:40.154Z,4.30
2018-06-01T08:26:09.235Z,4.80
2018-06-01T08:28:37.515Z,4.20
2018-06-01T08:31:06.537Z,3.93
2018-06-01T08:33:34.859Z,4.23
2018-06-01T08:36:03.091Z,4.50
2018-06-01T08:38:31.343Z,4.30
2018-06-01T08:41:00.675Z,4.13
2018-06-01T08:43:28.909Z,4.27
2018-06-01T08:45:57.923Z,4.10
2018-06-01T08:48:26.297Z,4.00
2018-06-01T08:50:54.570Z,4.17
2018-06-01T08:53:22.827Z,3.90
2018-06-01T08:55:51.964Z,3.77
2018-06-01T08:58:20.227Z,3.90
2018-06-01T09:00:48.468Z,3.47
2018-06-01T09:03:16.840Z,4.20
2018-06-01T09:05:45.097Z,3.87
2018-06-01T09:08:13.382Z,3.70
2018-06-01T09:10:41.745Z,3.80
2018-06-01T09:13:09.999Z,4.03
2018-06-01T09:15:38.256Z,4.17
2018-06-01T09:18:06.535Z,3.27
2018-06-01T09:20:34.785Z,3.53
2018-06-01T09:23:03.798Z,3.53
2018-06-01T09:25:32.070Z,3.90
2018-06-01T09:28:00.331Z,3.83
2018-06-01T09:30:29.352Z,4.17
2018-06-01T09:32:57.632Z,3.57
2018-06-01T09:35:25.926Z,3.80
2018-06-01T09:37:54.182Z,3.13
2018-06-01T09:40:22.455Z,3.60
2018-06-01T09:42:51.484Z,3.73
2018-06-01T09:45:19.750Z,3.63
2018-06-01T09:47:48.201Z,4.10
2018-06-01T09:50:16.449Z,3.80
2018-06-01T09:52:45.475Z,3.40
2018-06-01T09:55:14.659Z,3.50
2018-06-01T09:57:42.910Z,3.30
2018-06-01T10:00:11.960Z,3.50
2018-06-01T10:02:40.228Z,3.67
2018-06-01T10:05:08.799Z,3.23
2018-06-01T10:07:37.035Z,3.23
2018-06-01T10:10:11.662Z,3.20
2018-06-01T10:12:40.687Z,3.63
2018-06-01T10:15:08.942Z,3.60
2018-06-01T10:17:37.204Z,3.27
2018-06-01T10:20:06.256Z,3.30
2018-06-01T10:22:34.505Z,3.50
2018-06-01T10:25:02.786Z,3.83
2018-06-01T10:27:31.053Z,3.33
2018-06-01T10:29:59.304Z,3.60
2018-06-01T10:32:27.544Z,3.10
2018-06-01T10:34:55.806Z,3.17
2018-06-01T10:37:24.104Z,2.80
2018-06-01T10:39:53.132Z,3.13
2018-06-01T10:42:21.384Z,2.80
2018-06-01T10:44:50.436Z,3.03
2018-06-01T10:47:18.709Z,3.10
2018-06-01T10:49:46.961Z,3.13
2018-06-01T10:52:15.235Z,3.33
2018-06-01T10:54:43.474Z,2.97
2018-06-01T10:57:12.740Z,2.70
2018-06-01T10:59:42.026Z,2.97
2018-06-01T11:02:10.376Z,3.00
2018-06-01T11:04:38.694Z,2.93
2018-06-01T11:07:06.961Z,2.60
2018-06-01T11:09:35.473Z,2.70
2018-06-01T11:12:04.504Z,2.70
2018-06-01T11:14:32.813Z,2.70
2018-06-01T11:17:01.916Z,3.00
2018-06-01T11:19:30.186Z,3.30
2018-06-01T11:21:58.478Z,2.87
2018-06-01T11:24:26.723Z,2.97
2018-06-01T11:26:55.036Z,2.73
2018-06-01T11:29:23.261Z,2.80
2018-06-01T11:31:51.563Z,2.30
2018-06-01T11:34:19.867Z,2.33
2018-06-01T11:36:48.916Z,2.77
2018-06-01T11:39:17.341Z,2.70
2018-06-01T11:41:46.382Z,2.77
2018-06-01T11:44:14.641Z,2.47
2018-06-01T11:46:43.005Z,2.57
2018-06-01T11:49:11.274Z,2.80
2018-06-01T11:51:40.304Z,2.67
2018-06-01T11:54:08.549Z,2.50
2018-06-01T11:56:36.816Z,2.80
2018-06-01T11:59:05.839Z,2.53
2018-06-01T12:01:34.100Z,2.20
2018-06-01T12:04:02.421Z,2.70
2018-06-01T12:06:30.647Z,2.63
2018-06-01T12:08:58.918Z,2.60
2018-06-01T12:11:27.214Z,2.83
2018-06-01T12:13:55.471Z,2.50
2018-06-01T12:16:23.924Z,2.60
2018-06-01T12:18:52.932Z,2.70
2018-06-01T12:21:21.191Z,3.10
2018-06-01T12:23:49.472Z,2.70
2018-06-01T12:26:18.496Z,2.70
2018-06-01T12:28:46.745Z,2.80
2018-06-01T12:31:15.781Z,2.70
2018-06-01T12:33:44.057Z,2.53
2018-06-01T12:36:12.335Z,2.43
2018-06-01T12:38:40.575Z,2.50
2018-06-01T12:41:08.828Z,2.43
2018-06-01T12:43:37.876Z,2.60
2018-06-01T12:46:06.138Z,2.40
2018-06-01T12:48:35.223Z,1.97
2018-06-01T12:51:03.542Z,2.30
2018-06-01T12:53:31.795Z,2.30
2018-06-01T12:56:00.100Z,2.10
2018-06-01T12:58:28.351Z,2.27
2018-06-01T13:00:56.625Z,2.10
2018-06-01T13:03:24.908Z,2.30
2018-06-01T13:05:53.159Z,2.20
2018-06-01T13:08:21.401Z,2.03
2018-06-01T13:10:50.482Z,2.20
2018-06-01T13:13:18.758Z,2.00
2018-06-01T13:15:47.891Z,1.87
2018-06-01T13:18:16.226Z,1.93
2018-06-01T13:20:44.553Z,2.33
2018-06-01T13:23:12.769Z,2.10
2018-06-01T13:25:41.020Z,1.90
2018-06-01T13:28:09.313Z,2.00
2018-06-01T13:30:38.103Z,1.90
2018-06-01T13:33:06.369Z,2.60
2018-06-01T13:35:34.633Z,1.97
2018-06-01T13:38:02.912Z,2.00
2018-06-01T13:40:31.169Z,2.10
2018-06-01T13:42:59.448Z,2.37
2018-06-01T13:45:27.720Z,2.10
2018-06-01T13:47:55.981Z,2.30
2018-06-01T13:50:24.240Z,2.90
2018-06-01T13:52:52.537Z,2.00
2018-06-01T13:55:21.559Z,2.10
2018-06-01T13:57:49.839Z,2.20
2018-06-01T14:00:18.116Z,2.37
2018-06-01T14:02:46.381Z,2.50
2018-06-01T14:05:14.670Z,2.10
2018-06-01T14:07:43.063Z,2.20
2018-06-01T14:10:12.078Z,1.93
2018-06-01T14:12:40.349Z,2.23
2018-06-01T14:15:09.392Z,2.40
2018-06-01T14:17:37.710Z,2.30
2018-06-01T14:20:06.754Z,2.20
2018-06-01T14:22:35.065Z,2.40
2018-06-01T14:25:03.373Z,2.47
2018-06-01T14:27:31.798Z,2.67
2018-06-01T14:30:00.047Z,2.33
2018-06-01T14:32:28.311Z,2.20
2018-06-01T14:34:56.621Z,2.07
2018-06-01T14:37:24.889Z,2.43
2018-06-01T14:39:53.159Z,2.40
2018-06-01T14:42:21.420Z,2.30
2018-06-01T14:44:49.963Z,2.30
2018-06-01T14:47:18.981Z,2.17
2018-06-01T14:49:47.246Z,2.27
2018-06-01T14:52:16.434Z,1.90
2018-06-01T14:54:45.466Z,2.30
2018-06-01T14:57:13.731Z,2.10
2018-06-01T14:59:42.206Z,2.70
2018-06-01T15:02:10.459Z,2.10
2018-06-01T15:04:39.470Z,2.30
2018-06-01T15:07:07.770Z,2.33
2018-06-01T15:09:36.772Z,2.23
2018-06-01T15:12:05.043Z,2.30
2018-06-01T15:14:33.609Z,2.57
2018-06-01T15:17:01.867Z,2.47
2018-06-01T15:19:30.134Z,2.30
2018-06-01T15:21:58.408Z,2.60
2018-06-01T15:24:26.785Z,3.20
2018-06-01T15:26:55.295Z,2.60
2018-06-01T15:29:23.547Z,2.30
2018-06-01T15:31:51.805Z,2.30
2018-06-01T15:34:20.975Z,2.17
2018-06-01T15:36:49.258Z,2.40
2018-06-01T15:39:17.539Z,3.00
2018-06-01T15:41:47.057Z,2.60
2018-06-01T15:44:16.081Z,2.60
2018-06-01T15:46:44.352Z,2.67
2018-06-01T15:49:12.588Z,2.77
2018-06-01T15:51:41.624Z,2.27
2018-06-01T15:54:09.890Z,2.50
2018-06-01T15:56:38.196Z,2.60
2018-06-01T15:59:06.463Z,2.50
2018-06-01T16:01:34.728Z,2.57
2018-06-01T16:04:03.047Z,2.53
2018-06-01T16:06:31.307Z,2.63
2018-06-01T16:08:59.560Z,2.87
2018-06-01T16:11:27.834Z,2.90
2018-06-01T16:13:56.162Z,2.90
2018-06-01T16:16:24.418Z,3.13
2018-06-01T16:18:52.680Z,2.83
2018-06-01T16:21:20.951Z,2.73
2018-06-01T16:23:49.220Z,2.60
2018-06-01T16:26:17.503Z,2.60
2018-06-01T16:28:45.773Z,2.63
2018-06-01T16:31:14.016Z,2.70
2018-06-01T16:33:42.279Z,2.87
2018-06-01T16:36:10.700Z,2.93
2018-06-01T16:38:39.181Z,2.70
2018-06-01T16:41:07.475Z,2.97
2018-06-01T16:43:35.736Z,2.50
2018-06-01T16:46:04.117Z,2.20
2018-06-01T16:48:32.446Z,2.87
2018-06-01T16:51:00.840Z,2.60
2018-06-01T16:53:29.121Z,2.67
2018-06-01T16:55:57.379Z,2.67
2018-06-01T16:58:25.729Z,2.70
2018-06-01T17:00:53.993Z,2.70
2018-06-01T17:03:22.256Z,2.70
2018-06-01T17:05:50.666Z,2.73
2018-06-01T17:08:19.909Z,2.60
2018-06-01T17:10:48.180Z,2.53
2018-06-01T17:13:16.432Z,2.80
2018-06-01T17:15:44.690Z,2.67
2018-06-01T17:18:13.703Z,2.73
2018-06-01T17:20:41.981Z,2.67
2018-06-01T17:23:10.242Z,3.30
2018-06-01T17:25:38.507Z,3.23
2018-06-01T17:28:07.519Z,2.57
2018-06-01T17:30:35.786Z,2.50
2018-06-01T17:33:04.088Z,2.70
2018-06-01T17:35:32.332Z,2.43
2018-06-01T17:38:00.626Z,2.37
2018-06-01T17:40:28.875Z,2.20
2018-06-01T17:42:57.919Z,2.97
2018-06-01T17:45:26.163Z,2.30
2018-06-01T17:47:55.165Z,2.30
2018-06-01T17:50:23.683Z,2.30
2018-06-01T17:52:51.975Z,2.40
2018-06-01T17:55:20.227Z,2.40
2018-06-01T17:57:48.521Z,2.30
2018-06-01T18:00:16.783Z,2.30
2018-06-01T18:02:45.074Z,2.10
2018-06-01T18:05:13.325Z,2.43
2018-06-01T18:07:41.578Z,2.50
2018-06-01T18:10:09.943Z,2.10
2018-06-01T18:12:38.199Z,2.40
2018-06-01T18:15:06.459Z,2.50
2018-06-01T18:17:35.629Z,2.33
2018-06-01T18:20:03.885Z,2.53
2018-06-01T18:22:32.196Z,2.40
2018-06-01T18:25:00.405Z,2.17
2018-06-01T18:27:28.673Z,2.63
2018-06-01T18:29:56.935Z,2.60
2018-06-01T18:32:26.039Z,2.37
2018-06-01T18:34:54.539Z,1.90
2018-06-01T18:37:22.811Z,2.43
2018-06-01T18:39:51.075Z,2.40
2018-06-01T18:42:19.340Z,2.30
2018-06-01T18:44:48.360Z,2.30
2018-06-01T18:47:16.637Z,2.40
2018-06-01T18:49:44.895Z,2.50
2018-06-01T18:52:13.148Z,2.40
2018-06-01T18:54:42.491Z,2.60
2018-06-01T18:57:11.566Z,2.30
2018-06-01T18:59:40.596Z,2.10
2018-06-01T19:02:09.090Z,2.60
2018-06-01T19:04:37.334Z,2.33
2018-06-01T19:07:05.586Z,2.20
2018-06-01T19:09:33.970Z,2.20
2018-06-01T19:12:02.227Z,2.37
2018-06-01T19:14:31.249Z,2.37
2018-06-01T19:16:59.543Z,2.47
2018-06-01T19:19:27.805Z,2.37
2018-06-01T19:21:56.055Z,1.90
2018-06-01T19:24:24.568Z,2.40
2018-06-01T19:26:52.828Z,2.37
2018-06-01T19:29:21.065Z,2.90
2018-06-01T19:31:50.209Z,2.80
2018-06-01T19:34:18.490Z,2.60
2018-06-01T19:36:46.772Z,2.60
2018-06-01T19:39:15.035Z,2.40
2018-06-01T19:41:43.281Z,2.47
2018-06-01T19:44:11.541Z,2.57
2018-06-01T19:46:40.564Z,2.50
2018-06-01T19:49:08.861Z,2.70
2018-06-01T19:51:37.128Z,2.70
2018-06-01T19:54:05.392Z,2.70
2018-06-01T19:56:33.657Z,2.90
2018-06-01T19:59:01.916Z,2.83
2018-06-01T20:01:30.183Z,2.50
2018-06-01T20:03:59.218Z,2.60
2018-06-01T20:06:27.482Z,2.53
2018-06-01T20:08:55.736Z,2.30
2018-06-01T20:11:24.774Z,2.40
2018-06-01T20:13:53.060Z,2.73
2018-06-01T20:16:21.340Z,2.90
2018-06-01T20:18:49.611Z,3.00
2018-06-01T20:21:17.881Z,3.03
2018-06-01T20:23:46.131Z,2.73
2018-06-01T20:26:14.498Z,3.50
2018-06-01T20:28:42.739Z,2.90
2018-06-01T20:31:11.755Z,2.77
2018-06-01T20:33:40.046Z,2.90
2018-06-01T20:36:08.309Z,2.90
2018-06-01T20:38:36.569Z,2.60
2018-06-01T20:41:05.781Z,3.00
2018-06-01T20:43:34.030Z,3.00
2018-06-01T20:46:03.060Z,3.20
2018-06-01T20:48:31.309Z,2.90
2018-06-01T20:51:00.336Z,2.97
2018-06-01T20:53:28.601Z,2.50
2018-06-01T20:55:56.858Z,3.17
2018-06-01T20:58:25.881Z,2.93
2018-06-01T21:00:54.159Z,2.97
2018-06-01T21:03:22.407Z,2.80
2018-06-01T21:05:50.705Z,3.17
2018-06-01T21:08:18.973Z,2.70
2018-06-01T21:10:47.270Z,3.20
2018-06-01T21:13:15.531Z,3.10
2018-06-01T21:15:43.778Z,2.97
2018-06-01T21:18:12.055Z,3.00
2018-06-01T21:20:40.299Z,2.80
2018-06-01T21:23:08.593Z,2.80
2018-06-01T21:25:37.617Z,3.00
2018-06-01T21:28:05.906Z,2.60
2018-06-01T21:30:34.383Z,2.67
2018-06-01T21:33:02.634Z,2.87
2018-06-01T21:35:30.879Z,2.87
2018-06-01T21:37:59.947Z,2.50
2018-06-01T21:40:28.200Z,3.10
2018-06-01T21:42:56.450Z,2.70
2018-06-01T21:45:24.719Z,2.30
2018-06-01T21:47:52.984Z,2.73
2018-06-01T21:50:22.004Z,2.70
2018-06-01T21:52:50.253Z,2.50
2018-06-01T21:55:19.292Z,2.47
2018-06-01T21:57:47.572Z,2.70
2018-06-01T22:00:15.864Z,2.50
2018-06-01T22:02:44.123Z,3.00
2018-06-01T22:05:12.394Z,2.80
2018-06-01T22:07:40.643Z,2.70
2018-06-01T22:10:08.900Z,2.80
2018-06-01T22:12:37.187Z,2.40
2018-06-01T22:15:05.491Z,2.50
2018-06-01T22:17:33.758Z,2.50
2018-06-01T22:20:02.052Z,2.53
2018-06-01T22:22:30.292Z,2.57
2018-06-01T22:24:58.563Z,2.77
2018-06-01T22:27:26.811Z,2.80
2018-06-01T22:29:55.043Z,2.80
2018-06-01T22:32:23.317Z,2.63
2018-06-01T22:34:51.572Z,2.60
2018-06-01T22:37:19.820Z,2.40
2018-06-01T22:39:49.107Z,2.60
2018-06-01T22:42:18.139Z,2.50
2018-06-01T22:44:46.395Z,2.70
2018-06-01T22:47:14.756Z,2.43
2018-06-01T22:49:43.772Z,2.63
2018-06-01T22:52:12.027Z,2.47
2018-06-01T22:54:41.049Z,2.50
2018-06-01T22:57:10.064Z,2.67
2018-06-01T22:59:38.319Z,2.63
2018-06-01T23:02:06.703Z,2.80
2018-06-01T23:04:34.937Z,2.50
2018-06-01T23:07:03.190Z,2.40
2018-06-01T23:09:31.453Z,3.00
2018-06-01T23:11:59.707Z,2.57
2018-06-01T23:14:27.951Z,2.77
2018-06-01T23:16:56.222Z,2.90
2018-06-01T23:19:25.245Z,3.13
2018-06-01T23:21:53.507Z,2.93
2018-06-01T23:24:21.761Z,2.53
2018-06-01T23:26:50.779Z,2.87
2018-06-01T23:29:19.028Z,2.83
2018-06-01T23:31:48.051Z,2.83
2018-06-01T23:34:16.491Z,3.40
2018-06-01T23:36:45.499Z,2.77
2018-06-01T23:39:13.753Z,3.07
2018-06-01T23:41:42.887Z,2.97
2018-06-01T23:44:11.125Z,3.13
2018-06-01T23:46:40.148Z,2.73
2018-06-01T23:49:08.398Z,3.07
2018-06-01T23:51:37.428Z,2.80
2018-06-01T23:54:05.699Z,2.60
2018-06-01T23:56:33.954Z,3.03
2018-06-01T23:59:02.220Z,3.30
